createdAt,value
2023-04-19T00:00:02.224Z,1018.19
2023-04-19T00:16:04.432Z,1018.22
2023-04-19T00:31:01.678Z,1018.02
2023-04-19T00:46:03.684Z,1017.88
2023-04-19T01:00:00.824Z,1017.75
2023-04-19T01:16:02.984Z,1017.55
2023-04-19T01:31:00.121Z,1017.41
2023-04-19T01:46:02.404Z,1017.38
2023-04-19T02:00:04.304Z,1017.34
2023-04-19T02:16:01.533Z,1017.24
2023-04-19T02:31:00.995Z,1017.07
2023-04-19T02:46:00.872Z,1017
2023-04-19T03:00:02.830Z,1016.87
2023-04-19T03:16:00.206Z,1016.66
2023-04-19T03:31:02.154Z,1016.43
2023-04-19T03:46:04.482Z,1016.36
2023-04-19T04:00:01.391Z,1016.36
2023-04-19T04:16:03.629Z,1016.22
2023-04-19T04:31:00.405Z,1016.36
2023-04-19T04:46:02.796Z,1016.33
2023-04-19T04:59:59.816Z,1016.33
2023-04-19T05:16:02.301Z,1016.36
2023-04-19T05:31:04.635Z,1016.29
2023-04-19T05:46:01.868Z,1016.19
2023-04-19T06:00:03.773Z,1016.12
2023-04-19T06:16:01.119Z,1016.06
2023-04-19T06:31:03.350Z,1015.89
2023-04-19T06:46:00.548Z,1015.78
2023-04-19T07:00:02.397Z,1015.72
2023-04-19T07:16:04.377Z,1015.55
2023-04-19T07:31:03.460Z,1015.38
2023-04-19T07:46:03.332Z,1015.14
2023-04-19T08:00:00.280Z,1014.9
2023-04-19T08:17:42.989Z,1014.8
2023-04-19T08:30:59.706Z,1014.63
2023-04-19T08:46:02.102Z,1014.53
2023-04-19T09:00:03.985Z,1014.29
2023-04-19T09:16:01.357Z,1014.02
2023-04-19T09:31:10.935Z,1013.82
2023-04-19T09:46:00.619Z,1013.58
2023-04-19T10:00:02.651Z,1013.35
2023-04-19T10:16:11.620Z,1013.21
2023-04-19T10:31:01.912Z,1013.11
2023-04-19T10:46:04.108Z,1012.8
2023-04-19T11:00:01.174Z,1012.5
2023-04-19T11:16:03.491Z,1012.36
2023-04-19T11:31:00.665Z,1012.16
2023-04-19T11:46:03.049Z,1012.06
2023-04-19T12:00:00.104Z,1011.99
2023-04-19T12:16:02.582Z,1011.99
2023-04-19T12:31:00.630Z,1011.92
2023-04-19T12:46:01.895Z,1011.89
2023-04-19T13:00:06.422Z,1011.89
2023-04-19T13:16:01.717Z,1011.75
2023-04-19T13:31:03.688Z,1011.75
2023-04-19T13:46:00.817Z,1011.59
2023-04-19T14:00:02.814Z,1011.55
2023-04-19T14:16:00.360Z,1011.55
2023-04-19T14:31:02.277Z,1011.45
2023-04-19T14:46:04.461Z,1011.35
2023-04-19T15:00:01.494Z,1011.21
2023-04-19T15:16:03.713Z,1011.11
2023-04-19T15:31:00.933Z,1011.15
2023-04-19T15:46:03.394Z,1011.11
2023-04-19T16:00:04.683Z,1011.25
2023-04-19T16:16:01.908Z,1011.28
2023-04-19T16:31:04.106Z,1011.25
2023-04-19T16:46:01.258Z,1011.25
2023-04-19T17:00:03.185Z,1011.28
2023-04-19T17:16:00.428Z,1011.48
2023-04-19T17:31:02.750Z,1011.62
2023-04-19T17:45:59.945Z,1011.82
2023-04-19T18:00:02.120Z,1012.03
2023-04-19T18:16:04.308Z,1012.16
2023-04-19T18:31:01.618Z,1012.5
2023-04-19T18:46:03.833Z,1012.67
2023-04-19T19:00:00.899Z,1012.8
2023-04-19T19:16:00.580Z,1013.04
2023-04-19T19:31:00.571Z,1013.14
2023-04-19T19:46:02.584Z,1013.28
2023-04-19T20:00:22.833Z,1013.31
2023-04-19T20:16:01.761Z,1013.18
2023-04-19T20:31:03.939Z,1013.28
2023-04-19T20:46:01.122Z,1013.28
2023-04-19T21:00:03.353Z,1013.24
2023-04-19T21:16:00.586Z,1013.18
2023-04-19T21:31:02.783Z,1013.18
2023-04-19T21:46:02.369Z,1013.21
2023-04-19T22:00:02.220Z,1013.24
2023-04-19T22:16:04.415Z,1013.24
2023-04-19T22:31:01.659Z,1013.24
2023-04-19T22:46:03.997Z,1013.21
2023-04-19T23:00:00.972Z,1013.21
2023-04-19T23:16:03.349Z,1013.21
2023-04-19T23:31:00.639Z,1012.97
2023-04-19T23:46:02.913Z,1012.91
2023-04-19T23:59:59.894Z,1012.87
